Time;durP1;ratioP1;P1;durP2;ratioP2;P2;SDS_P1;SDS_P2;PMS_P1;PMS_P2;Temp;Humidity;BMP_temperature;BMP_pressure;BME280_temperature;BME280_humidity;BME280_pressure;Samples;Min_cycle;Max_cycle;Signal;HPM_P1;HPM_P2
2023/12/09 00:00:24;;;;;;;4.27;3.70;;;;;;;20.82;45.20;97295.72;4953517;28;20200;-33
2023/12/09 00:02:50;;;;;;;4.23;3.70;;;;;;;20.84;45.39;97290.63;4952946;28;20271;-26
2023/12/09 00:05:17;;;;;;;7.27;4.13;;;;;;;20.84;45.27;97288.94;4953637;28;20263;-26
2023/12/09 00:07:44;;;;;;;4.37;3.97;;;;;;;20.86;45.13;97289.84;4934540;29;20240;-28
2023/12/09 00:10:10;;;;;;;4.00;3.60;;;;;;;20.86;44.94;97279.63;4916671;29;20205;-26
2023/12/09 00:12:37;;;;;;;4.53;4.03;;;;;;;20.87;45.02;97280.50;4928056;29;20264;-26
2023/12/09 00:15:04;;;;;;;4.20;3.53;;;;;;;20.88;45.28;97290.78;4928416;29;20279;-26
2023/12/09 00:17:32;;;;;;;3.97;3.67;;;;;;;20.89;45.13;97286.50;4937747;29;20225;-26
2023/12/09 00:19:59;;;;;;;4.27;3.87;;;;;;;20.89;45.08;97277.16;4937493;29;20712;-28
2023/12/09 00:22:26;;;;;;;4.07;3.67;;;;;;;20.90;45.04;97284.00;4937684;29;20687;-26
2023/12/09 00:24:53;;;;;;;4.00;3.60;;;;;;;20.91;45.18;97290.84;4937375;29;20209;-26
2023/12/09 00:27:20;;;;;;;4.07;3.67;;;;;;;20.91;45.00;97279.75;4937295;29;20703;-27
2023/12/09 00:29:47;;;;;;;3.97;3.57;;;;;;;20.90;44.98;97289.09;4937992;29;20228;-26
2023/12/09 00:32:14;;;;;;;4.40;3.77;;;;;;;20.91;45.08;97284.88;4935967;29;20293;-26
2023/12/09 00:34:40;;;;;;;4.00;3.70;;;;;;;20.91;44.88;97278.09;4937186;29;20201;-26
2023/12/09 00:37:07;;;;;;;3.80;3.50;;;;;;;20.92;44.83;97284.03;4936931;29;20759;-27
2023/12/09 00:39:34;;;;;;;4.13;3.80;;;;;;;20.81;45.31;97290.56;4937610;29;20288;-27
2023/12/09 00:42:01;;;;;;;4.50;3.90;;;;;;;20.73;45.61;97292.00;4937220;29;20284;-29
2023/12/09 00:44:27;;;;;;;4.90;3.83;;;;;;;20.66;45.71;97293.50;4937404;29;20209;-27
2023/12/09 00:46:54;;;;;;;4.10;3.70;;;;;;;20.63;45.67;97295.13;4932733;29;20285;-26
2023/12/09 00:49:21;;;;;;;4.30;3.90;;;;;;;20.58;45.53;97289.91;4936207;29;20212;-27
2023/12/09 00:51:47;;;;;;;4.23;3.83;;;;;;;20.66;45.52;97293.50;4937010;29;20208;-29
2023/12/09 00:54:14;;;;;;;4.43;4.00;;;;;;;20.71;45.91;97293.66;4929042;29;20654;-27
2023/12/09 00:56:40;;;;;;;4.23;3.70;;;;;;;20.74;45.44;97292.06;4936487;29;20225;-26
2023/12/09 00:59:07;;;;;;;3.93;3.53;;;;;;;20.77;45.33;97292.16;4937186;29;20217;-26
2023/12/09 01:01:34;;;;;;;4.77;4.27;;;;;;;20.78;45.35;97288.75;4936582;29;20212;-27
2023/12/09 01:04:01;;;;;;;4.43;4.03;;;;;;;20.80;45.14;97291.34;4936835;29;20209;-26
2023/12/09 01:06:28;;;;;;;4.13;3.73;;;;;;;20.82;45.18;97299.94;4936823;29;20308;-28
2023/12/09 01:09:23;;;;;;;4.00;3.60;;;;;;;20.83;45.45;97299.97;4936451;29;20205;-39
2023/12/09 01:11:50;;;;;;;4.20;3.80;;;;;;;20.85;45.13;97305.13;4934929;29;20204;-26
2023/12/09 01:14:19;;;;;;;4.17;3.77;;;;;;;20.85;45.30;97306.00;4936976;29;20633;-26
2023/12/09 01:16:46;;;;;;;3.80;3.50;;;;;;;20.87;45.12;97301.78;4936686;29;20666;-28
2023/12/09 01:19:13;;;;;;;4.43;4.03;;;;;;;20.87;45.27;97301.78;4936804;29;20205;-26
2023/12/09 01:21:39;;;;;;;4.40;4.00;;;;;;;20.87;45.05;97299.22;4933631;29;20220;-26
2023/12/09 01:24:06;;;;;;;4.53;4.13;;;;;;;20.87;45.22;97306.91;4928438;29;20268;-26
2023/12/09 01:26:33;;;;;;;3.83;3.53;;;;;;;20.88;45.06;97305.22;4936364;29;20220;-28
2023/12/09 01:29:02;;;;;;;4.30;3.90;;;;;;;20.89;44.98;97306.94;4931337;29;20247;-27
2023/12/09 01:31:29;;;;;;;4.20;3.80;;;;;;;20.89;45.04;97306.94;4933669;29;20205;-26
2023/12/09 01:33:56;;;;;;;4.33;3.87;;;;;;;20.89;45.05;97306.94;4936621;29;20252;-26
2023/12/09 01:36:23;;;;;;;4.20;3.80;;;;;;;20.89;45.22;97309.50;4928626;29;20221;-26
2023/12/09 01:38:49;;;;;;;4.43;3.93;;;;;;;20.89;45.05;97305.25;4929650;29;20213;-28
2023/12/09 01:41:16;;;;;;;4.90;4.33;;;;;;;20.89;45.08;97315.47;4932773;29;20201;-26
2023/12/09 01:43:48;;;;;;;4.20;3.90;;;;;;;20.77;45.21;97322.78;4934699;29;20208;-26
2023/12/09 01:46:14;;;;;;;4.20;3.80;;;;;;;20.69;45.66;97321.69;4931148;29;20217;-26
2023/12/09 01:48:41;;;;;;;3.50;3.20;;;;;;;20.63;45.52;97316.41;4919102;29;20205;-26
2023/12/09 01:51:08;;;;;;;4.20;3.70;;;;;;;20.60;45.82;97321.41;4929453;29;20221;-27
2023/12/09 01:53:35;;;;;;;4.23;3.90;;;;;;;20.58;45.89;97324.75;4936383;29;20202;-26
2023/12/09 01:56:03;;;;;;;3.90;3.60;;;;;;;20.67;45.61;97322.47;4917639;29;20692;-26
2023/12/09 01:58:30;;;;;;;4.00;3.70;;;;;;;20.71;45.50;97317.50;4928543;29;20252;-26
2023/12/09 02:00:56;;;;;;;3.80;3.50;;;;;;;20.73;45.33;97315.88;4934018;29;20227;-27
2023/12/09 02:03:23;;;;;;;4.10;3.80;;;;;;;20.77;45.33;97327.91;4908630;29;20209;-26
2023/12/09 02:05:50;;;;;;;3.97;3.67;;;;;;;20.78;45.46;97323.66;4918440;29;20309;-28
2023/12/09 02:08:16;;;;;;;4.13;3.67;;;;;;;20.80;45.42;97333.09;4935627;29;20668;-35
2023/12/09 02:10:43;;;;;;;3.87;3.53;;;;;;;20.80;45.23;97325.44;4935791;29;20201;-26
2023/12/09 02:13:23;;;;;;;4.10;3.70;;;;;;;20.80;45.21;97320.31;4917324;29;20975;-26
2023/12/09 02:16:06;;;;;;;4.77;3.70;;;;;;;20.83;45.26;97322.97;4907505;29;20370;-27
2023/12/09 02:18:33;;;;;;;4.33;3.90;;;;;;;20.84;45.23;97324.69;4935365;29;20271;-28
2023/12/09 02:21:00;;;;;;;4.00;3.60;;;;;;;20.85;45.21;97320.47;4914290;29;20680;-26
2023/12/09 02:23:27;;;;;;;3.87;3.40;;;;;;;20.84;45.59;97322.13;4935289;29;20201;-28
2023/12/09 02:25:54;;;;;;;3.60;3.30;;;;;;;20.87;45.14;97327.31;4927728;29;20696;-29
2023/12/09 02:28:23;;;;;;;3.67;3.37;;;;;;;20.86;45.20;97325.63;4902876;29;20256;-26
2023/12/09 02:30:55;;;;;;;3.77;3.47;;;;;;;20.85;45.18;97323.88;4935398;29;20212;-26
2023/12/09 02:33:21;;;;;;;3.87;3.47;;;;;;;20.89;45.09;97333.34;4934499;29;20220;-28
2023/12/09 02:35:52;;;;;;;3.90;3.60;;;;;;;20.89;44.94;97335.91;4934871;29;20235;-28
2023/12/09 02:38:18;;;;;;;4.33;3.93;;;;;;;20.89;45.15;97335.03;4916464;29;20292;-26
2023/12/09 02:40:45;;;;;;;3.63;3.33;;;;;;;20.89;45.35;97330.81;4935501;29;20261;-26
2023/12/09 02:43:12;;;;;;;4.23;3.80;;;;;;;20.83;45.18;97337.41;4934616;29;20237;-27
2023/12/09 02:45:39;;;;;;;4.13;3.73;;;;;;;20.73;45.32;97340.53;4935297;29;20220;-27
2023/12/09 02:48:05;;;;;;;3.70;3.40;;;;;;;20.67;45.69;97345.47;4933637;29;20660;-27
2023/12/09 02:50:32;;;;;;;4.30;3.90;;;;;;;20.62;45.66;97339.34;4924798;29;20244;-27
2023/12/09 02:52:59;;;;;;;4.50;4.10;;;;;;;20.58;45.89;97343.50;4907245;29;20213;-27
2023/12/09 02:55:25;;;;;;;4.63;4.07;;;;;;;20.60;45.75;97338.44;4932129;29;20666;-26
2023/12/09 02:57:52;;;;;;;3.90;3.60;;;;;;;20.68;45.43;97345.50;4934656;29;20220;-27
2023/12/09 03:00:18;;;;;;;4.47;4.07;;;;;;;20.73;45.56;97353.31;4927482;29;20209;-28
2023/12/09 03:02:45;;;;;;;4.40;3.87;;;;;;;20.74;45.37;97350.78;4935141;29;20197;-26
2023/12/09 03:05:12;;;;;;;4.53;4.13;;;;;;;20.77;45.39;97357.66;4934554;29;20208;-26
2023/12/09 03:07:38;;;;;;;3.90;3.60;;;;;;;20.78;45.27;97354.31;4934225;29;20220;-30
2023/12/09 03:10:05;;;;;;;3.83;3.53;;;;;;;20.80;45.25;97357.75;4934871;29;20252;-27
2023/12/09 03:12:32;;;;;;;4.27;3.87;;;;;;;20.81;45.37;97359.50;4934437;29;20201;-26
2023/12/09 03:14:58;;;;;;;4.30;3.90;;;;;;;20.82;45.17;97367.22;4934491;29;20201;-28
2023/12/09 03:17:25;;;;;;;3.80;3.50;;;;;;;20.84;45.25;97362.16;4934281;29;20263;-27
2023/12/09 03:19:52;;;;;;;3.90;3.60;;;;;;;20.84;45.13;97360.44;4934566;29;20256;-26
2023/12/09 03:22:18;;;;;;;4.53;4.13;;;;;;;20.75;45.17;97342.31;4934624;29;20579;-26
2023/12/09 03:24:45;;;;;;;4.00;3.70;;;;;;;20.85;45.14;97364.75;4934874;29;20213;-26
2023/12/09 03:27:11;;;;;;;4.83;4.20;;;;;;;20.86;44.96;97355.38;4934296;29;20731;-29
2023/12/09 03:29:38;;;;;;;4.10;3.77;;;;;;;20.86;45.24;97358.81;4934428;29;20197;-26
2023/12/09 03:32:05;;;;;;;4.53;4.10;;;;;;;20.87;45.16;97362.25;4930671;29;20208;-26
2023/12/09 03:34:31;;;;;;;4.27;3.87;;;;;;;20.86;44.86;97363.94;4931519;29;20202;-26
2023/12/09 03:36:58;;;;;;;4.47;3.83;;;;;;;20.87;45.08;97360.53;4930020;29;20260;-27
2023/12/09 03:39:25;;;;;;;4.37;3.97;;;;;;;20.88;45.02;97361.41;4934518;29;20204;-26
2023/12/09 03:41:51;;;;;;;4.30;3.90;;;;;;;20.82;45.12;97353.56;4934872;29;20236;-28
2023/12/09 03:44:18;;;;;;;4.63;4.00;;;;;;;20.72;46.02;97361.78;4934666;29;20216;-27
2023/12/09 03:46:45;;;;;;;4.10;3.73;;;;;;;20.65;45.46;97357.31;4927739;29;20220;-26
2023/12/09 03:49:11;;;;;;;4.20;3.80;;;;;;;20.60;45.61;97354.63;4934818;29;20260;-34
2023/12/09 03:51:38;;;;;;;4.30;3.90;;;;;;;20.57;45.79;97357.06;4937841;29;20253;-28
2023/12/09 03:54:05;;;;;;;4.80;4.40;;;;;;;20.62;45.68;97357.22;4938469;29;20208;-26
2023/12/09 03:56:31;;;;;;;4.60;4.20;;;;;;;20.66;45.28;97349.69;4934860;29;20229;-26
2023/12/09 03:58:58;;;;;;;4.57;4.17;;;;;;;20.71;45.36;97343.03;4937964;29;20588;-26
2023/12/09 04:01:25;;;;;;;4.37;3.97;;;;;;;20.73;45.49;97336.31;4937108;29;20220;-31
2023/12/09 04:03:52;;;;;;;4.30;3.90;;;;;;;20.75;45.15;97346.56;4938139;29;20200;-26
2023/12/09 04:06:18;;;;;;;4.23;3.83;;;;;;;20.77;45.18;97350.88;4937797;29;20704;-26
2023/12/09 04:08:45;;;;;;;4.43;4.00;;;;;;;20.79;45.10;97353.47;4937990;29;20219;-27
2023/12/09 04:11:12;;;;;;;4.47;4.07;;;;;;;20.79;45.39;97346.69;4937560;29;20268;-26
2023/12/09 04:13:40;;;;;;;4.10;3.77;;;;;;;20.81;45.19;97350.13;4934794;29;20201;-26
2023/12/09 04:16:07;;;;;;;4.33;3.93;;;;;;;20.81;45.18;97350.13;4937766;29;20226;-26
2023/12/09 04:18:33;;;;;;;4.93;4.23;;;;;;;20.81;45.28;97345.03;4936316;29;20204;-31
2023/12/09 04:21:00;;;;;;;4.67;4.20;;;;;;;20.82;45.23;97349.34;4937622;29;20683;-32
2023/12/09 04:23:27;;;;;;;4.17;3.77;;;;;;;20.83;45.17;97345.97;4937796;29;20208;-26
2023/12/09 04:25:54;;;;;;;4.87;4.30;;;;;;;20.83;45.14;97340.84;4937131;29;20263;-26
2023/12/09 04:28:21;;;;;;;4.77;4.27;;;;;;;20.84;45.26;97326.41;4931941;29;20292;-26
2023/12/09 04:30:47;;;;;;;4.87;4.10;;;;;;;20.85;45.08;97329.00;4937700;29;20244;-26
2023/12/09 04:33:14;;;;;;;4.40;4.00;;;;;;;20.86;45.13;97328.16;4931050;29;20256;-27
2023/12/09 04:35:41;;;;;;;4.50;4.10;;;;;;;20.87;45.12;97335.00;4933243;29;20220;-26
2023/12/09 04:38:07;;;;;;;4.80;4.40;;;;;;;20.87;44.98;97322.22;4937353;29;20205;-27
2023/12/09 04:40:34;;;;;;;4.10;3.80;;;;;;;20.81;45.17;97321.19;4937398;29;20205;-26
2023/12/09 04:43:00;;;;;;;4.33;3.83;;;;;;;20.71;45.14;97314.94;4937515;29;20205;-27
2023/12/09 04:45:27;;;;;;;4.40;4.00;;;;;;;20.65;45.64;97330.09;4935774;29;20257;-26
2023/12/09 04:47:53;;;;;;;4.10;3.60;;;;;;;20.62;45.64;97321.47;4935896;29;20260;-26
2023/12/09 04:50:21;;;;;;;4.30;4.00;;;;;;;20.57;45.59;97320.50;4936661;29;20299;-26
2023/12/09 04:52:47;;;;;;;5.30;4.80;;;;;;;20.59;45.55;97317.16;4929446;29;20232;-26
2023/12/09 04:55:14;;;;;;;4.93;4.43;;;;;;;20.66;45.20;97318.22;4929946;29;20213;-26
2023/12/09 04:57:41;;;;;;;4.63;4.17;;;;;;;20.70;45.59;97323.44;4934652;29;20226;-26
2023/12/09 05:00:10;;;;;;;4.93;4.53;;;;;;;20.71;45.45;97317.50;4937454;29;20205;-30
2023/12/09 05:02:38;;;;;;;4.47;4.07;;;;;;;20.74;45.29;97306.50;4936334;29;20211;-28
2023/12/09 05:05:04;;;;;;;4.73;4.33;;;;;;;20.76;45.24;97313.41;4936836;29;20264;-26
2023/12/09 05:07:31;;;;;;;4.63;4.23;;;;;;;20.77;45.48;97320.25;4935083;29;20515;-26
2023/12/09 05:09:58;;;;;;;4.57;4.17;;;;;;;20.80;45.03;97333.09;4931788;29;20205;-28
2023/12/09 05:12:24;;;;;;;4.77;4.33;;;;;;;20.82;45.18;97333.13;4936257;29;20205;-26
2023/12/09 05:14:51;;;;;;;3.97;3.67;;;;;;;20.82;45.11;97338.25;4936554;29;20209;-28
2023/12/09 05:17:18;;;;;;;4.50;4.10;;;;;;;20.83;44.92;97340.84;4936504;29;20236;-27
2023/12/09 05:19:44;;;;;;;4.50;4.10;;;;;;;20.79;44.93;97336.47;4936166;29;20644;-27
2023/12/09 05:22:11;;;;;;;5.27;4.77;;;;;;;20.84;45.24;97341.72;4936812;29;20213;-26
2023/12/09 05:24:38;;;;;;;4.50;4.10;;;;;;;20.86;44.97;97347.72;4936643;29;20201;-27
2023/12/09 05:27:05;;;;;;;4.73;4.33;;;;;;;20.85;45.20;97346.00;4928486;29;20232;-27
2023/12/09 05:29:31;;;;;;;4.83;4.33;;;;;;;20.87;45.12;97349.47;4936277;29;20256;-26
2023/12/09 05:31:59;;;;;;;4.90;4.40;;;;;;;20.87;45.10;97342.66;4928833;29;20680;-29
2023/12/09 05:34:25;;;;;;;4.90;4.50;;;;;;;20.86;45.15;97335.81;4935873;29;20707;-26
2023/12/09 05:36:52;;;;;;;4.23;3.93;;;;;;;20.87;44.98;97342.66;4936493;29;20735;-30
2023/12/09 05:39:19;;;;;;;4.90;4.40;;;;;;;20.78;45.29;97333.88;4928317;29;20201;-27
2023/12/09 05:41:45;;;;;;;4.57;4.17;;;;;;;20.70;45.46;97337.88;4934825;29;20610;-26
2023/12/09 05:44:12;;;;;;;4.63;4.20;;;;;;;20.63;45.52;97348.75;4936066;29;20630;-26
2023/12/09 05:46:40;;;;;;;4.63;4.20;;;;;;;20.60;45.71;97351.22;4934131;29;20255;-26
2023/12/09 05:49:06;;;;;;;5.17;4.67;;;;;;;20.56;45.60;97351.91;4936123;29;20205;-26
2023/12/09 05:51:33;;;;;;;5.00;4.60;;;;;;;20.62;45.64;97352.97;4935801;29;20203;-35
2023/12/09 05:54:00;;;;;;;5.27;4.77;;;;;;;20.67;45.35;97355.69;4936534;29;20205;-27
2023/12/09 05:56:26;;;;;;;4.90;4.50;;;;;;;20.69;45.56;97362.56;4936046;29;20232;-27
2023/12/09 05:58:53;;;;;;;5.00;4.53;;;;;;;20.71;45.43;97355.81;4935826;29;20229;-26
2023/12/09 06:01:19;;;;;;;5.17;4.67;;;;;;;20.73;45.35;97351.63;4931612;29;20256;-28
2023/12/09 06:03:46;;;;;;;5.00;4.60;;;;;;;20.74;45.31;97348.25;4935037;29;20691;-26
2023/12/09 06:06:13;;;;;;;4.80;4.30;;;;;;;20.77;45.07;97358.53;4934869;29;20728;-26
2023/12/09 06:08:40;;;;;;;5.33;4.83;;;;;;;20.79;45.35;97356.03;4930091;29;20284;-28
2023/12/09 06:11:06;;;;;;;4.27;3.87;;;;;;;20.80;45.26;97350.09;4929827;29;20205;-26
2023/12/09 06:13:33;;;;;;;4.90;4.40;;;;;;;20.81;45.07;97346.75;4934604;29;20247;-26
2023/12/09 06:15:59;;;;;;;5.03;4.53;;;;;;;20.82;45.05;97346.78;4935507;29;20252;-26
2023/12/09 06:18:26;;;;;;;4.57;4.17;;;;;;;20.83;45.18;97351.06;4935240;29;20256;-36
2023/12/09 06:20:53;;;;;;;4.93;4.43;;;;;;;20.84;45.12;97345.13;4935518;29;20213;-28
2023/12/09 06:23:19;;;;;;;5.30;4.77;;;;;;;20.84;45.16;97349.38;4935036;29;20231;-26
2023/12/09 06:25:46;;;;;;;5.67;5.07;;;;;;;20.85;45.20;97348.56;4933126;29;20303;-26
2023/12/09 06:28:13;;;;;;;5.47;4.97;;;;;;;20.85;44.89;97346.88;4930380;29;20204;-27
2023/12/09 06:30:39;;;;;;;4.97;4.57;;;;;;;20.85;45.23;97346.88;4935286;29;20261;-27
2023/12/09 06:33:06;;;;;;;4.80;4.40;;;;;;;20.87;44.99;97346.91;4918416;29;20247;-26
2023/12/09 06:35:33;;;;;;;5.07;4.57;;;;;;;20.83;44.92;97348.50;4933260;29;20311;-28
2023/12/09 06:37:59;;;;;;;4.83;4.37;;;;;;;20.73;45.33;97349.06;4932590;29;20307;-28
2023/12/09 06:40:26;;;;;;;5.03;4.53;;;;;;;20.66;45.45;97349.69;4935485;29;20205;-26
2023/12/09 06:42:52;;;;;;;5.40;4.73;;;;;;;20.61;45.39;97356.38;4935520;29;20676;-26
2023/12/09 06:45:19;;;;;;;4.90;4.47;;;;;;;20.58;45.62;97358.81;4934682;29;20205;-27
2023/12/09 06:47:46;;;;;;;5.27;4.77;;;;;;;20.57;45.61;97359.63;4934968;29;20290;-26
2023/12/09 06:50:12;;;;;;;5.77;5.10;;;;;;;20.64;45.51;97358.13;4934498;29;20201;-27
2023/12/09 06:52:39;;;;;;;5.23;4.73;;;;;;;20.69;45.38;97361.72;4935110;29;20268;-26
2023/12/09 06:55:07;;;;;;;5.97;5.37;;;;;;;20.70;45.34;97356.66;4935411;29;20212;-26
2023/12/09 06:57:34;;;;;;;5.17;4.67;;;;;;;20.72;45.24;97352.44;4934213;29;20225;-26
2023/12/09 07:00:05;;;;;;;5.30;4.80;;;;;;;20.73;45.17;97358.41;4935358;29;20204;-26
2023/12/09 07:02:31;;;;;;;5.10;4.60;;;;;;;20.75;45.28;97367.84;4926571;29;20205;-26
2023/12/09 07:05:17;;;;;;;5.20;4.80;;;;;;;20.75;45.29;97357.63;4932659;29;20197;-26
2023/12/09 07:07:44;;;;;;;5.87;4.90;;;;;;;20.78;45.32;97354.31;4934468;29;20197;-28
2023/12/09 07:10:11;;;;;;;5.47;4.97;;;;;;;20.79;45.48;97356.03;4931428;29;20206;-26
2023/12/09 07:12:38;;;;;;;5.13;4.63;;;;;;;20.81;45.46;97357.81;4934780;29;20246;-27
2023/12/09 07:15:05;;;;;;;5.17;4.60;;;;;;;20.82;45.40;97363.78;4930355;29;20292;-28
2023/12/09 07:17:32;;;;;;;5.30;4.80;;;;;;;20.82;44.99;97351.91;4934272;29;20838;-30
2023/12/09 07:19:59;;;;;;;5.00;4.50;;;;;;;20.83;45.24;97345.06;4934011;29;20291;-27
2023/12/09 07:22:26;;;;;;;5.37;4.87;;;;;;;20.84;45.14;97345.13;4934217;29;20205;-28
2023/12/09 07:24:53;;;;;;;4.93;4.43;;;;;;;20.85;45.08;97341.78;4936766;29;20236;-28
2023/12/09 07:27:19;;;;;;;5.37;4.87;;;;;;;20.85;45.08;97346.88;4937816;29;20288;-29
2023/12/09 07:29:46;;;;;;;5.47;4.77;;;;;;;20.87;45.10;97346.91;4936844;29;20211;-27
2023/12/09 07:32:12;;;;;;;5.10;4.60;;;;;;;20.79;45.27;97344.16;4934319;29;20225;-26
2023/12/09 07:34:39;;;;;;;4.77;4.37;;;;;;;20.71;45.71;97349.81;4921351;29;20559;-26
2023/12/09 07:37:07;;;;;;;5.70;5.10;;;;;;;20.64;45.63;97350.47;4935635;29;20233;-26
2023/12/09 07:39:33;;;;;;;7.50;5.30;;;;;;;20.59;45.64;97349.47;4937999;29;20326;-26
2023/12/09 07:42:00;;;;;;;5.90;5.40;;;;;;;20.54;45.75;97349.31;4937984;29;20292;-26
2023/12/09 07:44:27;;;;;;;6.40;5.80;;;;;;;20.59;45.64;97346.91;4937992;29;20672;-26
2023/12/09 07:46:53;;;;;;;6.07;5.47;;;;;;;20.66;45.65;97348.84;4935565;29;20316;-26
2023/12/09 07:49:20;;;;;;;6.70;6.00;;;;;;;20.71;45.39;97339.63;4934281;29;20264;-29
2023/12/09 07:51:46;;;;;;;6.70;6.07;;;;;;;20.73;45.43;97349.06;4936365;29;20201;-26
2023/12/09 07:54:13;;;;;;;6.40;5.80;;;;;;;20.74;45.33;97343.13;4938001;29;20193;-27
2023/12/09 07:56:39;;;;;;;6.57;5.33;;;;;;;20.71;45.43;97331.94;4935368;29;20308;-26
2023/12/09 07:59:06;;;;;;;6.53;5.40;;;;;;;20.78;45.33;97342.38;4937774;29;20289;-29
2023/12/09 08:01:33;;;;;;;6.83;6.13;;;;;;;20.80;45.38;97337.31;4937782;29;20200;-26
2023/12/09 08:04:00;;;;;;;7.13;6.30;;;;;;;20.79;45.17;97331.38;4937469;29;20283;-29
2023/12/09 08:06:27;;;;;;;7.47;6.77;;;;;;;20.79;45.37;97333.94;4937782;29;20567;-27
2023/12/09 08:08:54;;;;;;;6.60;6.00;;;;;;;20.82;45.24;97331.47;4937406;29;20288;-26
2023/12/09 08:11:20;;;;;;;9.23;6.53;;;;;;;20.83;45.27;97335.75;4931313;29;20205;-26
2023/12/09 08:13:47;;;;;;;7.27;6.57;;;;;;;20.84;45.31;97341.72;4935804;29;20202;-29
2023/12/09 08:16:14;;;;;;;7.83;6.73;;;;;;;20.84;45.15;97334.06;4932881;29;20269;-26
2023/12/09 08:18:42;;;;;;;12.30;11.00;;;;;;;20.84;42.85;97332.34;4933784;29;20217;-30
2023/12/09 08:21:10;;;;;;;14.87;13.33;;;;;;;20.84;42.01;97328.94;4925480;29;20575;-30
2023/12/09 08:23:38;;;;;;;17.13;15.30;;;;;;;20.83;40.75;97322.97;4932193;29;20629;-27
2023/12/09 08:26:04;;;;;;;19.07;16.60;;;;;;;20.85;39.90;97320.47;4929617;29;20233;-26
2023/12/09 08:28:31;;;;;;;22.97;17.60;;;;;;;20.84;39.26;97326.41;4937183;29;20272;-31
2023/12/09 08:30:58;;;;;;;19.43;17.37;;;;;;;20.70;39.13;97331.09;4934527;29;20205;-27
2023/12/09 08:33:25;;;;;;;18.13;16.20;;;;;;;20.61;40.46;97341.06;4931629;29;20256;-27
2023/12/09 08:35:52;;;;;;;19.33;16.53;;;;;;;20.56;40.51;97340.03;4939587;28;20224;-27
2023/12/09 08:38:18;;;;;;;17.67;15.43;;;;;;;20.51;40.09;97335.59;4929169;29;20305;-27
2023/12/09 08:40:45;;;;;;;18.83;14.93;;;;;;;20.47;41.20;97342.31;4934623;29;20201;-27
2023/12/09 08:43:11;;;;;;;17.70;14.60;;;;;;;20.54;41.91;97333.16;4937143;29;20208;-27
2023/12/09 08:45:38;;;;;;;16.97;14.73;;;;;;;20.55;42.64;97340.88;4936359;29;20209;-29
2023/12/09 08:48:04;;;;;;;17.07;14.10;;;;;;;20.57;42.69;97329.00;4936159;29;20201;-26
2023/12/09 08:50:31;;;;;;;15.23;13.63;;;;;;;20.58;43.09;97330.75;4936820;29;20241;-26
2023/12/09 08:52:58;;;;;;;18.03;13.07;;;;;;;20.60;43.12;97330.78;4936045;29;20205;-26
2023/12/09 08:55:24;;;;;;;15.40;12.47;;;;;;;20.60;43.41;97321.41;4933182;29;20256;-29
2023/12/09 08:57:51;;;;;;;13.33;11.93;;;;;;;20.62;43.32;97326.56;4936210;29;20542;-26
2023/12/09 09:00:20;;;;;;;13.13;11.73;;;;;;;20.64;43.42;97318.16;4935719;29;20212;-32
2023/12/09 09:02:48;;;;;;;13.57;12.17;;;;;;;20.67;43.75;97325.03;4935976;29;20205;-26
2023/12/09 09:05:15;;;;;;;16.03;11.27;;;;;;;20.68;43.62;97319.09;4936335;29;20205;-29
2023/12/09 09:07:45;;;;;;;15.03;11.83;;;;;;;20.68;43.58;97316.53;4935538;29;20649;-26
2023/12/09 09:10:12;;;;;;;12.50;11.30;;;;;;;20.66;43.80;97318.22;4919414;29;20201;-26
2023/12/09 09:12:38;;;;;;;11.67;10.57;;;;;;;20.58;43.97;97314.56;4928555;29;20644;-26
2023/12/09 09:15:06;;;;;;;13.00;10.43;;;;;;;20.52;44.36;97312.66;4935292;29;20641;-34
2023/12/09 09:17:34;;;;;;;11.90;10.60;;;;;;;20.49;44.57;97309.16;4935660;29;20228;-26
2023/12/09 09:20:03;;;;;;;13.67;10.47;;;;;;;20.48;44.59;97299.75;4935990;29;20205;-26
2023/12/09 09:22:29;;;;;;;13.27;9.93;;;;;;;20.50;44.73;97313.44;4934969;29;20205;-29
2023/12/09 09:24:58;;;;;;;11.80;10.27;;;;;;;20.53;44.93;97314.41;4935519;29;20212;-27
2023/12/09 09:27:25;;;;;;;11.40;9.63;;;;;;;20.55;44.95;97311.91;4935997;29;20334;-26
2023/12/09 09:29:52;;;;;;;12.03;9.53;;;;;;;20.55;44.98;97312.78;4931832;29;20212;-27
2023/12/09 09:32:20;;;;;;;15.10;10.20;;;;;;;20.56;44.92;97313.63;4936055;29;20212;-26
2023/12/09 09:34:47;;;;;;;11.40;9.50;;;;;;;20.56;44.97;97309.41;4930544;29;20657;-27
2023/12/09 09:37:14;;;;;;;11.73;9.67;;;;;;;20.58;45.08;97295.00;4933848;29;20308;-28
2023/12/09 09:39:41;;;;;;;12.90;8.97;;;;;;;20.59;45.29;97294.16;4935847;29;20205;-26
2023/12/09 09:42:21;;;;;;;12.20;9.47;;;;;;;20.58;45.10;97277.13;4936043;29;20200;-26
2023/12/09 09:45:14;;;;;;;12.40;9.33;;;;;;;20.61;45.22;97278.91;4926630;29;20292;-28
2023/12/09 09:47:41;;;;;;;12.00;9.23;;;;;;;20.61;45.45;97284.00;4924384;29;20217;-27
2023/12/09 09:50:08;;;;;;;10.63;8.53;;;;;;;20.61;45.22;97284.00;4931992;29;20669;-27
2023/12/09 09:52:35;;;;;;;11.23;9.10;;;;;;;20.57;45.24;97271.97;4940340;29;20201;-27
2023/12/09 09:55:03;;;;;;;14.43;11.77;;;;;;;20.50;44.05;97267.50;4935426;29;20208;-26
2023/12/09 09:57:30;;;;;;;17.43;12.80;;;;;;;20.44;42.71;97250.31;4912388;29;20615;-26
2023/12/09 09:59:57;;;;;;;16.80;13.77;;;;;;;20.43;42.92;97240.06;4933530;29;20672;-26
2023/12/09 10:02:25;;;;;;;15.50;11.40;;;;;;;20.40;43.65;97245.94;4920267;29;20744;-26
2023/12/09 10:04:52;;;;;;;14.43;11.80;;;;;;;20.47;44.06;97241.88;4929624;29;20211;-27
2023/12/09 10:07:19;;;;;;;18.83;12.20;;;;;;;20.53;43.90;97242.06;4934376;29;20220;-29
2023/12/09 10:09:46;;;;;;;13.53;11.27;;;;;;;20.54;44.41;97244.66;4931110;29;20197;-33
2023/12/09 10:12:13;;;;;;;13.67;11.37;;;;;;;20.54;44.50;97231.03;4932443;29;20205;-26
2023/12/09 10:14:40;;;;;;;14.47;10.97;;;;;;;20.55;44.41;97236.19;4930885;29;20207;-27
2023/12/09 10:17:06;;;;;;;11.97;10.17;;;;;;;20.56;44.74;97232.81;4933490;29;20625;-26
2023/12/09 10:19:36;;;;;;;12.27;10.63;;;;;;;20.56;44.94;97202.19;4913150;29;20703;-26
2023/12/09 10:22:03;;;;;;;12.93;9.67;;;;;;;20.58;44.55;97195.44;4929563;29;20205;-27
2023/12/09 10:24:29;;;;;;;11.40;10.03;;;;;;;20.57;44.84;97186.03;4935408;29;20472;-26
2023/12/09 10:26:56;;;;;;;13.53;9.43;;;;;;;20.59;44.62;97186.94;4934002;29;20311;-27
2023/12/09 10:29:24;;;;;;;11.27;9.40;;;;;;;20.59;44.69;97189.50;4913402;29;20248;-26
2023/12/09 10:31:51;;;;;;;13.27;9.50;;;;;;;20.58;44.76;97185.22;4917778;29;20210;-26
2023/12/09 10:34:18;;;;;;;12.97;8.97;;;;;;;20.58;44.87;97187.78;4927913;29;20202;-27
2023/12/09 10:36:45;;;;;;;10.53;9.10;;;;;;;20.52;44.95;97199.50;4934235;29;20252;-26
2023/12/09 10:39:12;;;;;;;11.63;8.30;;;;;;;20.47;44.96;97194.25;4914976;29;20232;-28
2023/12/09 10:41:38;;;;;;;10.70;8.57;;;;;;;20.45;44.98;97184.81;4932176;29;20570;-27
2023/12/09 10:44:05;;;;;;;9.30;8.30;;;;;;;20.43;45.07;97191.56;4934519;29;20204;-28
2023/12/09 10:46:32;;;;;;;9.90;8.00;;;;;;;20.43;45.30;97184.75;4934256;29;20224;-26
2023/12/09 10:49:01;;;;;;;10.83;8.57;;;;;;;20.52;45.24;97189.28;4934310;29;20205;-29
2023/12/09 10:51:28;;;;;;;11.60;8.73;;;;;;;20.53;45.09;97185.91;4933856;29;20212;-26
2023/12/09 10:53:54;;;;;;;11.63;8.57;;;;;;;20.54;45.05;97185.94;4929899;29;20275;-31
2023/12/09 10:56:21;;;;;;;11.80;8.30;;;;;;;20.55;45.17;97181.72;4933774;29;20311;-30
2023/12/09 10:58:48;;;;;;;9.13;7.30;;;;;;;20.58;45.22;97176.69;4917158;29;20275;-27
2023/12/09 11:01:15;;;;;;;10.23;7.30;;;;;;;20.60;45.31;97180.16;4919837;29;20650;-26
2023/12/09 11:03:42;;;;;;;9.20;8.00;;;;;;;20.63;45.01;97164.91;4934468;29;20240;-26
2023/12/09 11:06:09;;;;;;;8.50;7.17;;;;;;;20.57;44.74;97149.44;4935822;29;20600;-27
2023/12/09 11:08:36;;;;;;;8.47;7.23;;;;;;;20.65;45.19;97153.03;4917150;29;20201;-26
2023/12/09 11:11:05;;;;;;;9.13;7.00;;;;;;;20.69;44.92;97147.22;4917463;29;20283;-26
2023/12/09 11:13:35;;;;;;;8.57;7.53;;;;;;;20.68;44.95;97138.69;4917966;29;20197;-26
2023/12/09 11:16:09;;;;;;;8.97;7.47;;;;;;;20.69;45.06;97147.22;4927471;29;20237;-26
2023/12/09 11:18:37;;;;;;;8.00;7.20;;;;;;;20.64;45.16;97152.19;4933880;29;20228;-26
2023/12/09 11:21:04;;;;;;;7.60;6.80;;;;;;;20.58;45.13;97144.38;4908674;29;20215;-26
2023/12/09 11:23:30;;;;;;;7.80;7.00;;;;;;;20.54;45.50;97146.81;4926323;29;20256;-27
2023/12/09 11:25:57;;;;;;;7.17;6.47;;;;;;;20.51;45.26;97141.56;4933800;29;20284;-35
2023/12/09 11:28:24;;;;;;;7.83;6.50;;;;;;;20.46;45.44;97144.00;4928016;29;20675;-26